createdAt,value
2024-01-06T00:00:05.765Z,-6.83
2024-01-06T00:02:33.951Z,-6.99
2024-01-06T00:05:01.847Z,-6.95
2024-01-06T00:07:32.086Z,-6.79
2024-01-06T00:10:00.151Z,-6.50
2024-01-06T00:12:28.343Z,-6.37
2024-01-06T00:14:56.893Z,-6.78
2024-01-06T00:17:25.039Z,-7.10
2024-01-06T00:19:53.200Z,-7.16
2024-01-06T00:22:21.741Z,-7.11
2024-01-06T00:24:49.727Z,-6.96
2024-01-06T00:27:20.935Z,-6.73
2024-01-06T00:29:50.960Z,-6.62
2024-01-06T00:32:19.085Z,-6.47
2024-01-06T00:34:48.784Z,-6.33
2024-01-06T00:37:17.084Z,-6.25
2024-01-06T00:39:45.076Z,-6.24
2024-01-06T00:42:14.298Z,-6.25
2024-01-06T00:44:42.333Z,-6.16
2024-01-06T00:47:10.228Z,-6.16
2024-01-06T00:49:38.192Z,-6.11
2024-01-06T00:52:07.182Z,-6.23
2024-01-06T00:54:37.754Z,-6.53
2024-01-06T00:57:06.195Z,-7.57
2024-01-06T00:59:34.167Z,-7.41
2024-01-06T01:02:03.087Z,-7.13
2024-01-06T01:04:31.259Z,-7.21
2024-01-06T01:06:59.307Z,-7.35
2024-01-06T01:09:27.370Z,-7.26
2024-01-06T01:11:55.767Z,-7.24
2024-01-06T01:14:24.009Z,-7.04
2024-01-06T01:16:52.245Z,-6.82
2024-01-06T01:19:20.234Z,-7.00
2024-01-06T01:21:48.525Z,-7.02
2024-01-06T01:24:16.496Z,-7.00
2024-01-06T01:26:44.423Z,-7.08
2024-01-06T01:29:12.271Z,-7.01
2024-01-06T01:31:40.358Z,-7.24
2024-01-06T01:34:08.409Z,-7.65
2024-01-06T01:36:36.397Z,-7.75
2024-01-06T01:39:04.457Z,-7.84
2024-01-06T01:41:32.370Z,-7.82
2024-01-06T01:44:00.843Z,-7.84
2024-01-06T01:46:32.065Z,-7.69
2024-01-06T01:49:02.881Z,-8.01
2024-01-06T01:51:35.327Z,-7.91
2024-01-06T01:54:06.643Z,-7.76
2024-01-06T01:56:35.912Z,-8.01
2024-01-06T01:59:12.255Z,-7.78
2024-01-06T02:01:41.661Z,-7.70
2024-01-06T02:04:11.003Z,-8.69
2024-01-06T02:06:39.045Z,-9.12
2024-01-06T02:09:07.483Z,-8.57
2024-01-06T02:11:35.686Z,-8.20
2024-01-06T02:14:03.944Z,-7.98
2024-01-06T02:16:31.798Z,-8.31
2024-01-06T02:18:59.932Z,-8.83
2024-01-06T02:21:29.386Z,-8.61
2024-01-06T02:23:57.460Z,-8.99
2024-01-06T02:26:27.715Z,-9.57
2024-01-06T02:28:55.956Z,-9.49
2024-01-06T02:31:23.862Z,-9.34
2024-01-06T02:33:52.115Z,-8.86
2024-01-06T02:36:21.472Z,-8.56
2024-01-06T02:38:49.307Z,-8.42
2024-01-06T02:41:17.167Z,-8.50
2024-01-06T02:43:45.976Z,-9.01
2024-01-06T02:46:13.921Z,-9.13
2024-01-06T02:48:41.859Z,-9.01
2024-01-06T02:51:09.799Z,-8.96
2024-01-06T02:53:37.896Z,-8.94
2024-01-06T02:56:11.250Z,-8.55
2024-01-06T02:58:40.648Z,-8.12
2024-01-06T03:01:08.793Z,-7.78
2024-01-06T03:03:36.777Z,-7.79
2024-01-06T03:06:05.956Z,-8.14
2024-01-06T03:08:35.866Z,-8.06
2024-01-06T03:11:05.953Z,-8.58
2024-01-06T03:13:33.995Z,-8.38
2024-01-06T03:16:06.931Z,-8.16
2024-01-06T03:18:35.285Z,-7.99
2024-01-06T03:21:03.671Z,-7.91
2024-01-06T03:23:31.578Z,-7.81
2024-01-06T03:25:59.711Z,-7.80
2024-01-06T03:28:27.793Z,-7.77
2024-01-06T03:30:55.737Z,-7.72
2024-01-06T03:33:23.855Z,-7.51
2024-01-06T03:35:51.839Z,-7.58
2024-01-06T03:38:20.075Z,-8.37
2024-01-06T03:40:48.167Z,-8.34
2024-01-06T03:43:16.042Z,-8.16
2024-01-06T03:45:45.074Z,-8.05
2024-01-06T03:48:13.153Z,-8.47
2024-01-06T03:50:41.313Z,-8.19
2024-01-06T03:53:09.849Z,-8.01
2024-01-06T03:55:37.666Z,-7.95
2024-01-06T03:58:05.510Z,-8.07
2024-01-06T04:00:34.076Z,-8.17
2024-01-06T04:03:02.390Z,-8.30
2024-01-06T04:05:30.355Z,-8.67
2024-01-06T04:07:58.193Z,-8.92
2024-01-06T04:10:26.641Z,-8.88
2024-01-06T04:12:57.373Z,-9.03
2024-01-06T04:15:25.321Z,-9.04
2024-01-06T04:17:54.517Z,-9.37
2024-01-06T04:20:22.597Z,-9.33
2024-01-06T04:22:50.643Z,-8.95
2024-01-06T04:25:18.713Z,-8.75
2024-01-06T04:27:48.237Z,-8.79
2024-01-06T04:30:18.317Z,-8.75
2024-01-06T04:32:46.409Z,-8.61
2024-01-06T04:35:14.980Z,-8.36
2024-01-06T04:37:43.603Z,-8.08
2024-01-06T04:40:13.509Z,-7.94
2024-01-06T04:42:41.479Z,-7.95
2024-01-06T04:45:10.292Z,-7.79
2024-01-06T04:47:38.262Z,-7.79
2024-01-06T04:50:07.630Z,-7.98
2024-01-06T04:52:36.012Z,-8.48
2024-01-06T04:55:06.829Z,-8.64
2024-01-06T04:57:34.755Z,-8.90
2024-01-06T05:00:04.591Z,-8.52
2024-01-06T05:02:32.909Z,-8.33
2024-01-06T05:05:00.838Z,-8.26
2024-01-06T05:07:29.138Z,-8.15
2024-01-06T05:09:57.515Z,-8.18
2024-01-06T05:12:26.860Z,-7.98
2024-01-06T05:14:56.691Z,-8.24
2024-01-06T05:17:26.774Z,-8.50
2024-01-06T05:19:56.550Z,-8.38
2024-01-06T05:22:25.023Z,-8.58
2024-01-06T05:24:55.730Z,-8.39
2024-01-06T05:27:23.796Z,-8.49
2024-01-06T05:29:53.380Z,-8.27
2024-01-06T05:32:21.583Z,-8.39
2024-01-06T05:34:50.893Z,-8.91
2024-01-06T05:37:19.414Z,-9.16
2024-01-06T05:39:47.445Z,-8.65
2024-01-06T05:42:17.247Z,-8.34
2024-01-06T05:44:46.183Z,-8.18
2024-01-06T05:47:14.084Z,-7.87
2024-01-06T05:49:45.981Z,-7.71
2024-01-06T05:52:13.879Z,-7.79
2024-01-06T05:54:46.024Z,-7.92
2024-01-06T05:57:14.098Z,-7.80
2024-01-06T05:59:42.224Z,-7.71
2024-01-06T06:02:11.146Z,-7.97
2024-01-06T06:04:39.510Z,-9.10
2024-01-06T06:07:08.236Z,-9.43
2024-01-06T06:09:36.225Z,-9.52
2024-01-06T06:12:04.971Z,-9.82
2024-01-06T06:14:32.818Z,-9.45
2024-01-06T06:17:00.825Z,-9.26
2024-01-06T06:19:29.364Z,-9.54
2024-01-06T06:21:57.553Z,-9.22
2024-01-06T06:24:27.781Z,-9.30
2024-01-06T06:26:55.670Z,-9.20
2024-01-06T06:29:23.670Z,-9.17
2024-01-06T06:31:53.541Z,-9.05
2024-01-06T06:34:21.559Z,-8.95
2024-01-06T06:36:50.305Z,-8.71
2024-01-06T06:39:19.593Z,-8.91
2024-01-06T06:41:47.761Z,-9.03
2024-01-06T06:44:15.618Z,-9.02
2024-01-06T06:46:45.900Z,-8.87
2024-01-06T06:49:14.078Z,-8.70
2024-01-06T06:51:47.843Z,-8.77
2024-01-06T06:54:19.485Z,-9.17
2024-01-06T06:56:47.384Z,-9.37
2024-01-06T06:59:15.682Z,-9.18
2024-01-06T07:01:43.867Z,-8.94
2024-01-06T07:04:11.866Z,-9.68
2024-01-06T07:06:40.431Z,-10.04
2024-01-06T07:09:08.351Z,-10.02
2024-01-06T07:11:36.410Z,-9.43
2024-01-06T07:14:04.287Z,-8.87
2024-01-06T07:16:32.265Z,-8.39
2024-01-06T07:19:00.420Z,-8.09
2024-01-06T07:21:28.633Z,-7.93
2024-01-06T07:23:57.738Z,-7.86
2024-01-06T07:26:25.752Z,-7.80
2024-01-06T07:28:53.657Z,-7.89
2024-01-06T07:31:21.921Z,-8.45
2024-01-06T07:33:50.076Z,-9.50
2024-01-06T07:36:18.777Z,-9.85
2024-01-06T07:38:47.311Z,-9.55
2024-01-06T07:41:15.634Z,-9.10
2024-01-06T07:43:43.741Z,-9.17
2024-01-06T07:46:12.451Z,-9.24
2024-01-06T07:48:41.664Z,-8.77
2024-01-06T07:51:09.680Z,-8.92
2024-01-06T07:53:37.530Z,-8.63
2024-01-06T07:56:06.168Z,-8.62
2024-01-06T07:58:34.307Z,-8.75
2024-01-06T08:01:03.513Z,-8.61
2024-01-06T08:03:32.098Z,-8.52
2024-01-06T08:06:00.644Z,-8.46
2024-01-06T08:08:28.658Z,-8.22
2024-01-06T08:10:56.510Z,-8.35
2024-01-06T08:13:24.398Z,-8.39
2024-01-06T08:15:52.487Z,-9.01
2024-01-06T08:18:28.682Z,-10.26
2024-01-06T08:20:59.990Z,-10.93
2024-01-06T08:23:28.884Z,-10.51
2024-01-06T08:25:59.175Z,-10.79
2024-01-06T08:28:34.271Z,-10.32
2024-01-06T08:31:02.741Z,-9.93
2024-01-06T08:33:31.143Z,-9.43
2024-01-06T08:35:59.208Z,-9.47
2024-01-06T08:38:27.103Z,-9.22
2024-01-06T08:40:55.127Z,-9.89
2024-01-06T08:43:22.997Z,-10.01
2024-01-06T08:45:52.113Z,-9.69
2024-01-06T08:48:20.709Z,-9.70
2024-01-06T08:50:48.955Z,-9.34
2024-01-06T08:53:16.957Z,-9.21
2024-01-06T08:55:47.271Z,-8.90
2024-01-06T08:58:17.253Z,-8.52
2024-01-06T09:00:47.759Z,-8.83
2024-01-06T09:03:16.461Z,-8.61
2024-01-06T09:05:44.764Z,-8.66
2024-01-06T09:08:12.684Z,-9.74
2024-01-06T09:10:40.495Z,-10.40
2024-01-06T09:13:08.664Z,-10.75
2024-01-06T09:15:38.199Z,-10.79
2024-01-06T09:18:06.804Z,-10.94
2024-01-06T09:20:34.850Z,-10.80
2024-01-06T09:23:03.036Z,-9.81
2024-01-06T09:25:31.089Z,-9.18
2024-01-06T09:28:00.100Z,-8.99
2024-01-06T09:30:28.743Z,-9.07
2024-01-06T09:32:56.828Z,-8.83
2024-01-06T09:35:25.272Z,-8.77
2024-01-06T09:37:53.600Z,-8.88
2024-01-06T09:40:24.477Z,-8.88
2024-01-06T09:42:54.658Z,-8.66
2024-01-06T09:45:23.346Z,-8.40
2024-01-06T09:47:53.013Z,-8.21
2024-01-06T09:50:22.023Z,-8.14
2024-01-06T09:52:55.393Z,-8.07
2024-01-06T09:55:27.492Z,-9.45
2024-01-06T09:57:55.622Z,-8.73
2024-01-06T10:00:24.167Z,-8.84
2024-01-06T10:02:53.509Z,-8.98
2024-01-06T10:05:23.153Z,-8.56
2024-01-06T10:07:51.461Z,-7.84
2024-01-06T10:10:21.149Z,-7.89
2024-01-06T10:12:49.045Z,-7.52
2024-01-06T10:15:21.585Z,-7.58
2024-01-06T10:17:51.435Z,-8.40
2024-01-06T10:20:21.169Z,-8.24
2024-01-06T10:22:49.442Z,-7.63
2024-01-06T10:25:17.380Z,-7.19
2024-01-06T10:27:46.530Z,-7.14
2024-01-06T10:30:19.722Z,-6.97
2024-01-06T10:32:47.747Z,-7.47
2024-01-06T10:35:16.647Z,-7.32
2024-01-06T10:37:46.411Z,-7.35
2024-01-06T10:40:18.445Z,-7.01
2024-01-06T10:42:47.183Z,-6.97
2024-01-06T10:45:16.574Z,-7.03
2024-01-06T10:47:48.384Z,-6.48
2024-01-06T10:50:19.032Z,-6.30
2024-01-06T10:52:49.323Z,-6.30
2024-01-06T10:55:21.428Z,-6.07
2024-01-06T10:57:52.573Z,-6.32
2024-01-06T11:00:22.744Z,-5.97
2024-01-06T11:02:54.100Z,-6.10
2024-01-06T11:05:23.559Z,-6.55
2024-01-06T11:07:55.994Z,-6.56
2024-01-06T11:10:24.939Z,-7.02
2024-01-06T11:13:21.716Z,-7.97
2024-01-06T11:15:54.700Z,-9.62
2024-01-06T11:18:45.045Z,-9.79
2024-01-06T11:21:15.900Z,-8.67
2024-01-06T11:23:44.204Z,-8.21
2024-01-06T11:26:12.163Z,-7.53
2024-01-06T11:28:49.028Z,-7.23
2024-01-06T11:31:17.575Z,-7.26
2024-01-06T11:33:50.415Z,-7.13
2024-01-06T11:36:21.100Z,-6.99
2024-01-06T11:38:52.117Z,-6.64
2024-01-06T11:41:54.922Z,-6.86
2024-01-06T11:44:22.921Z,-6.59
2024-01-06T11:46:52.862Z,-6.37
2024-01-06T11:49:22.914Z,-6.44
2024-01-06T11:51:51.060Z,-6.81
2024-01-06T11:54:20.462Z,-6.36
2024-01-06T11:56:50.495Z,-5.92
2024-01-06T11:59:21.386Z,-5.65
2024-01-06T12:01:49.407Z,-5.46
2024-01-06T12:04:18.864Z,-5.42
2024-01-06T12:06:47.587Z,-5.45
2024-01-06T12:09:20.368Z,-5.44
2024-01-06T12:12:10.409Z,-5.34
2024-01-06T12:14:38.677Z,-5.09
2024-01-06T12:17:06.690Z,-5.53
2024-01-06T12:19:38.432Z,-5.75
2024-01-06T12:22:13.336Z,-5.18
2024-01-06T12:24:42.710Z,-5.07
2024-01-06T12:27:11.466Z,-5.34
2024-01-06T12:29:42.345Z,-5.62
2024-01-06T12:32:14.648Z,-6.03
2024-01-06T12:34:43.006Z,-5.82
2024-01-06T12:37:11.089Z,-5.85
2024-01-06T12:39:39.086Z,-5.83
2024-01-06T12:42:10.015Z,-6.13
2024-01-06T12:44:39.956Z,-6.69
2024-01-06T12:47:07.914Z,-7.53
2024-01-06T12:49:39.302Z,-7.27
2024-01-06T12:52:07.817Z,-6.77
2024-01-06T12:54:35.989Z,-6.44
2024-01-06T12:57:04.512Z,-6.30
2024-01-06T12:59:32.885Z,-6.36
2024-01-06T13:02:04.659Z,-6.25
2024-01-06T13:04:32.759Z,-6.04
2024-01-06T13:07:03.426Z,-5.83
2024-01-06T13:09:31.985Z,-5.54
2024-01-06T13:12:01.694Z,-6.25
2024-01-06T13:14:31.188Z,-6.22
2024-01-06T13:17:00.511Z,-6.18
2024-01-06T13:19:28.706Z,-5.89
2024-01-06T13:21:56.990Z,-5.47
2024-01-06T13:24:25.299Z,-5.10
2024-01-06T13:26:53.988Z,-4.74
2024-01-06T13:29:22.105Z,-4.67
2024-01-06T13:31:50.539Z,-5.11
2024-01-06T13:34:19.050Z,-4.89
2024-01-06T13:36:48.217Z,-4.78
2024-01-06T13:39:26.518Z,-4.93
2024-01-06T13:41:54.425Z,-5.01
2024-01-06T13:44:23.983Z,-4.98
2024-01-06T13:46:52.417Z,-5.53
2024-01-06T13:49:20.891Z,-5.27
2024-01-06T13:51:50.203Z,-5.08
2024-01-06T13:54:20.193Z,-4.96
2024-01-06T13:56:49.623Z,-5.06
2024-01-06T13:59:18.047Z,-5.05
2024-01-06T14:01:46.039Z,-5.24
2024-01-06T14:04:14.618Z,-5.38
2024-01-06T14:06:42.807Z,-5.11
2024-01-06T14:09:13.192Z,-5.22
2024-01-06T14:11:41.315Z,-5.19
2024-01-06T14:14:10.869Z,-5.22
2024-01-06T14:16:38.898Z,-4.99
2024-01-06T14:19:06.845Z,-4.91
2024-01-06T14:21:35.155Z,-5.09
2024-01-06T14:24:03.113Z,-5.49
2024-01-06T14:26:32.168Z,-5.41
2024-01-06T14:29:00.816Z,-5.41
2024-01-06T14:31:28.819Z,-5.61
2024-01-06T14:34:00.633Z,-5.70
2024-01-06T14:36:29.366Z,-5.86
2024-01-06T14:38:58.543Z,-5.75
2024-01-06T14:41:26.381Z,-5.42
2024-01-06T14:43:54.428Z,-5.41
2024-01-06T14:46:22.328Z,-5.35
2024-01-06T14:48:50.336Z,-5.14
2024-01-06T14:51:18.953Z,-4.88
2024-01-06T14:53:47.089Z,-4.80
2024-01-06T14:56:15.663Z,-4.67
2024-01-06T14:58:44.212Z,-4.71
2024-01-06T15:01:13.109Z,-5.14
2024-01-06T15:03:41.236Z,-5.03
2024-01-06T15:06:10.389Z,-4.96
2024-01-06T15:08:40.315Z,-4.76
2024-01-06T15:11:11.937Z,-4.82
2024-01-06T15:13:42.564Z,-4.53
2024-01-06T15:16:11.053Z,-4.78
2024-01-06T15:18:39.368Z,-4.56
2024-01-06T15:21:07.369Z,-4.20
2024-01-06T15:23:35.665Z,-3.87
2024-01-06T15:26:05.578Z,-3.84
2024-01-06T15:28:34.103Z,-4.28
2024-01-06T15:31:02.226Z,-4.44
2024-01-06T15:33:30.389Z,-4.85
2024-01-06T15:35:58.428Z,-4.97
2024-01-06T15:38:28.372Z,-5.24
2024-01-06T15:40:56.623Z,-4.92
2024-01-06T15:43:24.899Z,-4.69
2024-01-06T15:45:54.962Z,-4.73
2024-01-06T15:48:25.910Z,-4.38
2024-01-06T15:50:54.718Z,-4.37
2024-01-06T15:53:23.004Z,-4.47
2024-01-06T15:55:50.897Z,-4.67
2024-01-06T15:58:20.088Z,-4.41
2024-01-06T16:00:48.232Z,-4.24
2024-01-06T16:03:16.420Z,-4.01
2024-01-06T16:05:45.441Z,-3.79
2024-01-06T16:08:14.663Z,-3.66
2024-01-06T16:10:42.528Z,-3.47
2024-01-06T16:13:11.057Z,-3.29
2024-01-06T16:15:39.347Z,-3.09
2024-01-06T16:18:08.897Z,-2.99
2024-01-06T16:20:36.855Z,-3.20
2024-01-06T16:23:05.573Z,-3.20
2024-01-06T16:25:39.819Z,-2.99
2024-01-06T16:28:12.391Z,-2.83
2024-01-06T16:30:41.545Z,-2.68
2024-01-06T16:33:10.382Z,-2.80
2024-01-06T16:35:38.981Z,-2.85
2024-01-06T16:38:06.897Z,-3.19
2024-01-06T16:40:34.709Z,-3.36
2024-01-06T16:43:05.600Z,-3.48
2024-01-06T16:45:33.685Z,-3.48
2024-01-06T16:48:02.156Z,-3.35
2024-01-06T16:50:30.090Z,-3.33
2024-01-06T16:52:59.061Z,-3.36
2024-01-06T16:55:26.914Z,-3.24
2024-01-06T16:58:01.187Z,-3.28
2024-01-06T17:00:30.163Z,-3.24
2024-01-06T17:02:58.544Z,-3.30
2024-01-06T17:05:27.304Z,-3.38
2024-01-06T17:07:55.957Z,-4.15
2024-01-06T17:10:24.779Z,-4.03
2024-01-06T17:12:53.496Z,-4.07
2024-01-06T17:15:26.072Z,-4.34
2024-01-06T17:17:54.216Z,-4.42
2024-01-06T17:20:22.178Z,-4.22
2024-01-06T17:22:50.753Z,-3.88
2024-01-06T17:25:19.062Z,-3.77
2024-01-06T17:27:47.418Z,-3.97
2024-01-06T17:30:17.764Z,-4.10
2024-01-06T17:32:46.981Z,-4.40
2024-01-06T17:35:15.082Z,-4.87
2024-01-06T17:37:42.854Z,-4.94
2024-01-06T17:40:12.309Z,-4.53
2024-01-06T17:42:40.156Z,-4.70
2024-01-06T17:45:08.796Z,-4.57
2024-01-06T17:47:41.136Z,-4.48
2024-01-06T17:50:10.264Z,-4.31
2024-01-06T17:52:38.118Z,-4.13
2024-01-06T17:55:07.998Z,-3.99
2024-01-06T17:57:36.450Z,-3.85
2024-01-06T18:00:06.542Z,-3.68
2024-01-06T18:02:37.027Z,-3.54
2024-01-06T18:05:07.988Z,-3.95
2024-01-06T18:07:36.182Z,-4.45
2024-01-06T18:10:08.905Z,-4.84
2024-01-06T18:12:45.321Z,-5.01
2024-01-06T18:15:13.681Z,-5.15
2024-01-06T18:17:41.976Z,-5.59
2024-01-06T18:20:11.278Z,-5.47
2024-01-06T18:22:39.294Z,-5.04
2024-01-06T18:25:09.772Z,-4.94
2024-01-06T18:27:37.900Z,-4.84
2024-01-06T18:30:07.317Z,-4.66
2024-01-06T18:32:35.748Z,-4.61
2024-01-06T18:35:04.494Z,-4.44
2024-01-06T18:37:32.363Z,-4.30
2024-01-06T18:40:00.708Z,-4.46
2024-01-06T18:42:29.152Z,-4.46
2024-01-06T18:44:57.502Z,-4.63
2024-01-06T18:47:29.504Z,-4.97
2024-01-06T18:49:58.109Z,-4.50
2024-01-06T18:52:26.850Z,-4.54
2024-01-06T18:54:54.824Z,-4.94
2024-01-06T18:57:23.282Z,-5.06
2024-01-06T18:59:52.605Z,-4.75
2024-01-06T19:02:20.695Z,-4.46
2024-01-06T19:04:48.940Z,-4.29
2024-01-06T19:07:17.500Z,-4.12
2024-01-06T19:09:45.636Z,-4.27
2024-01-06T19:12:13.586Z,-4.88
2024-01-06T19:14:41.632Z,-5.69
2024-01-06T19:17:09.511Z,-5.80
2024-01-06T19:19:41.478Z,-5.69
2024-01-06T19:22:09.938Z,-5.86
2024-01-06T19:24:43.374Z,-6.00
2024-01-06T19:27:12.849Z,-5.84
2024-01-06T19:29:44.170Z,-6.14
2024-01-06T19:32:14.033Z,-5.81
2024-01-06T19:34:42.608Z,-5.46
2024-01-06T19:37:11.073Z,-5.39
2024-01-06T19:39:39.887Z,-5.32
2024-01-06T19:42:08.766Z,-5.64
2024-01-06T19:44:36.635Z,-6.59
2024-01-06T19:47:05.267Z,-7.06
2024-01-06T19:49:33.820Z,-7.51
2024-01-06T19:52:03.809Z,-7.63
2024-01-06T19:54:38.166Z,-7.10
2024-01-06T19:57:06.576Z,-6.61
2024-01-06T19:59:34.935Z,-7.08
2024-01-06T20:02:02.802Z,-6.76
2024-01-06T20:04:31.341Z,-6.95
2024-01-06T20:06:59.476Z,-6.56
2024-01-06T20:09:28.149Z,-6.17
2024-01-06T20:11:55.999Z,-6.06
2024-01-06T20:14:23.897Z,-5.78
2024-01-06T20:16:53.356Z,-5.69
2024-01-06T20:19:21.880Z,-5.41
2024-01-06T20:21:49.920Z,-5.54
2024-01-06T20:24:17.995Z,-5.17
2024-01-06T20:26:46.405Z,-4.77
2024-01-06T20:29:15.871Z,-4.63
2024-01-06T20:31:45.676Z,-4.69
2024-01-06T20:34:14.033Z,-4.40
2024-01-06T20:36:42.613Z,-4.23
2024-01-06T20:39:11.309Z,-4.03
2024-01-06T20:41:39.511Z,-3.87
2024-01-06T20:44:09.530Z,-4.04
2024-01-06T20:46:39.950Z,-3.85
2024-01-06T20:49:07.790Z,-3.91
2024-01-06T20:51:36.838Z,-4.02
2024-01-06T20:54:06.392Z,-3.99
2024-01-06T20:56:34.392Z,-3.95
2024-01-06T20:59:02.652Z,-3.99
2024-01-06T21:01:30.919Z,-3.93
2024-01-06T21:03:58.970Z,-3.76
2024-01-06T21:06:27.627Z,-3.55
2024-01-06T21:08:55.633Z,-3.32
2024-01-06T21:11:23.610Z,-3.16
2024-01-06T21:13:51.525Z,-3.42
2024-01-06T21:16:20.001Z,-3.80
2024-01-06T21:18:50.335Z,-4.44
2024-01-06T21:21:20.110Z,-4.34
2024-01-06T21:23:49.457Z,-4.18
2024-01-06T21:26:18.027Z,-3.89
2024-01-06T21:28:47.666Z,-3.63
2024-01-06T21:31:16.781Z,-3.42
2024-01-06T21:33:49.537Z,-3.28
2024-01-06T21:36:18.019Z,-3.15
2024-01-06T21:38:46.351Z,-3.04
2024-01-06T21:41:14.562Z,-3.16
2024-01-06T21:43:42.825Z,-3.61
2024-01-06T21:46:10.747Z,-3.75
2024-01-06T21:48:39.577Z,-3.51
2024-01-06T21:51:08.235Z,-3.51
2024-01-06T21:53:36.686Z,-3.56
2024-01-06T21:56:05.475Z,-3.48
2024-01-06T21:58:33.408Z,-3.32
2024-01-06T22:01:01.601Z,-3.13
2024-01-06T22:03:30.943Z,-2.95
2024-01-06T22:05:59.415Z,-3.01
2024-01-06T22:08:27.554Z,-2.83
2024-01-06T22:10:55.423Z,-2.79
2024-01-06T22:13:24.405Z,-2.76
2024-01-06T22:15:52.257Z,-2.86
2024-01-06T22:18:20.269Z,-2.93
2024-01-06T22:20:48.695Z,-3.18
2024-01-06T22:23:16.468Z,-3.14
2024-01-06T22:25:45.485Z,-3.04
2024-01-06T22:28:15.418Z,-2.96
2024-01-06T22:30:43.520Z,-3.05
2024-01-06T22:33:11.578Z,-3.27
2024-01-06T22:35:39.865Z,-3.64
2024-01-06T22:38:07.687Z,-3.77
2024-01-06T22:40:36.045Z,-3.61
2024-01-06T22:43:04.132Z,-3.61
2024-01-06T22:45:32.565Z,-4.20
2024-01-06T22:48:01.075Z,-4.13
2024-01-06T22:50:31.067Z,-4.73
2024-01-06T22:52:59.927Z,-5.79
2024-01-06T22:55:27.798Z,-5.96
2024-01-06T22:57:56.109Z,-5.66
2024-01-06T23:00:30.703Z,-5.51
2024-01-06T23:02:58.835Z,-5.49
2024-01-06T23:05:26.780Z,-6.09
2024-01-06T23:07:55.792Z,-6.89
2024-01-06T23:10:24.070Z,-6.79
2024-01-06T23:12:52.433Z,-7.56
2024-01-06T23:15:20.398Z,-8.46
2024-01-06T23:17:50.243Z,-8.50
2024-01-06T23:20:18.125Z,-7.84
2024-01-06T23:22:46.071Z,-7.15
2024-01-06T23:25:15.964Z,-6.44
2024-01-06T23:27:45.423Z,-6.46
2024-01-06T23:30:14.335Z,-6.01
2024-01-06T23:32:43.018Z,-5.32
2024-01-06T23:35:11.338Z,-4.79
2024-01-06T23:37:41.123Z,-4.25
2024-01-06T23:40:10.841Z,-3.99
2024-01-06T23:42:38.915Z,-3.74
2024-01-06T23:45:09.949Z,-3.81
2024-01-06T23:47:37.851Z,-4.25
2024-01-06T23:50:07.555Z,-4.34
2024-01-06T23:52:36.154Z,-4.07
2024-01-06T23:55:05.813Z,-3.80
2024-01-06T23:57:33.878Z,-3.63
